sensor_id;sensor_type;location;lat;lon;timestamp;pressure;altitude;pressure_sealevel;temperature;humidity
37972;BME280;23794;48.234;8.344;2023-04-07T00:00:42;94228.22;;;4.53;71.05
37972;BME280;23794;48.234;8.344;2023-04-07T00:03:09;94234.91;;;4.59;71.28
37972;BME280;23794;48.234;8.344;2023-04-07T00:05:37;94229.41;;;4.55;71.36
37972;BME280;23794;48.234;8.344;2023-04-07T00:08:04;94226.09;;;4.43;71.62
37972;BME280;23794;48.234;8.344;2023-04-07T00:10:30;94224.25;;;4.47;72.42
37972;BME280;23794;48.234;8.344;2023-04-07T00:12:57;94223.81;;;4.45;72.33
37972;BME280;23794;48.234;8.344;2023-04-07T00:15:24;94223.44;;;4.46;72.17
37972;BME280;23794;48.234;8.344;2023-04-07T00:17:51;94212.66;;;4.50;71.56
37972;BME280;23794;48.234;8.344;2023-04-07T00:20:17;94215.59;;;4.41;72.68
37972;BME280;23794;48.234;8.344;2023-04-07T00:22:44;94215.53;;;4.37;72.57
37972;BME280;23794;48.234;8.344;2023-04-07T00:25:11;94209.19;;;4.30;73.31
37972;BME280;23794;48.234;8.344;2023-04-07T00:27:37;94205.16;;;4.20;73.66
37972;BME280;23794;48.234;8.344;2023-04-07T00:30:05;94197.56;;;4.29;72.85
37972;BME280;23794;48.234;8.344;2023-04-07T00:32:32;94205.78;;;4.33;72.20
37972;BME280;23794;48.234;8.344;2023-04-07T00:35:00;94192.59;;;4.31;72.61
37972;BME280;23794;48.234;8.344;2023-04-07T00:37:29;94189.31;;;4.22;73.51
37972;BME280;23794;48.234;8.344;2023-04-07T00:39:56;94185.88;;;4.25;73.19
37972;BME280;23794;48.234;8.344;2023-04-07T00:42:24;94187.75;;;4.21;72.89
37972;BME280;23794;48.234;8.344;2023-04-07T00:44:51;94183.91;;;4.22;72.73
37972;BME280;23794;48.234;8.344;2023-04-07T00:47:17;94177.28;;;4.19;73.13
37972;BME280;23794;48.234;8.344;2023-04-07T00:49:44;94183.97;;;4.26;72.37
37972;BME280;23794;48.234;8.344;2023-04-07T00:52:14;94177.28;;;4.19;73.08
37972;BME280;23794;48.234;8.344;2023-04-07T00:54:41;94174.91;;;4.18;73.45
37972;BME280;23794;48.234;8.344;2023-04-07T00:57:08;94169.91;;;4.20;72.56
37972;BME280;23794;48.234;8.344;2023-04-07T00:59:36;94167.19;;;4.20;73.50
37972;BME280;23794;48.234;8.344;2023-04-07T01:07:34;94155.78;;;4.11;73.82
37972;BME280;23794;48.234;8.344;2023-04-07T01:10:11;94152.06;;;4.19;72.95
37972;BME280;23794;48.234;8.344;2023-04-07T01:12:55;94152.06;;;4.19;72.83
37972;BME280;23794;48.234;8.344;2023-04-07T01:15:26;94147.00;;;4.17;73.02
37972;BME280;23794;48.234;8.344;2023-04-07T01:18:05;94148.09;;;4.13;73.54
37972;BME280;23794;48.234;8.344;2023-04-07T01:20:35;94147.00;;;4.17;72.50
37972;BME280;23794;48.234;8.344;2023-04-07T01:23:05;94147.00;;;4.17;72.71
37972;BME280;23794;48.234;8.344;2023-04-07T01:31:11;94122.06;;;4.08;71.70
37972;BME280;23794;48.234;8.344;2023-04-07T01:33:43;94121.72;;;4.10;71.36
37972;BME280;23794;48.234;8.344;2023-04-07T01:36:11;94116.06;;;4.18;71.75
37972;BME280;23794;48.234;8.344;2023-04-07T01:38:38;94124.31;;;4.26;71.28
37972;BME280;23794;48.234;8.344;2023-04-07T01:41:07;94122.06;;;4.31;70.36
37972;BME280;23794;48.234;8.344;2023-04-07T01:43:35;94123.75;;;4.39;69.57
37972;BME280;23794;48.234;8.344;2023-04-07T01:46:04;94122.66;;;4.44;70.20
37972;BME280;23794;48.234;8.344;2023-04-07T01:48:31;94121.94;;;4.47;70.27
37972;BME280;23794;48.234;8.344;2023-04-07T01:50:58;94124.28;;;4.49;69.93
37972;BME280;23794;48.234;8.344;2023-04-07T01:53:26;94125.06;;;4.49;69.33
37972;BME280;23794;48.234;8.344;2023-04-07T01:55:53;94117.72;;;4.50;69.32
37972;BME280;23794;48.234;8.344;2023-04-07T01:58:20;94121.56;;;4.49;70.20
37972;BME280;23794;48.234;8.344;2023-04-07T02:00:47;94124.44;;;4.60;69.77
37972;BME280;23794;48.234;8.344;2023-04-07T02:03:23;94124.38;;;4.56;70.40
37972;BME280;23794;48.234;8.344;2023-04-07T02:06:00;94126.59;;;4.47;71.07
37972;BME280;23794;48.234;8.344;2023-04-07T02:08:30;94121.44;;;4.42;71.24
37972;BME280;23794;48.234;8.344;2023-04-07T02:11:00;94119.53;;;4.42;71.78
37972;BME280;23794;48.234;8.344;2023-04-07T02:13:33;94118.06;;;4.48;71.21
37972;BME280;23794;48.234;8.344;2023-04-07T02:16:01;94110.38;;;4.50;70.94
37972;BME280;23794;48.234;8.344;2023-04-07T02:18:29;94107.88;;;4.42;71.27
37972;BME280;23794;48.234;8.344;2023-04-07T02:20:58;94105.66;;;4.47;70.85
37972;BME280;23794;48.234;8.344;2023-04-07T02:23:26;94109.72;;;4.34;71.30
37972;BME280;23794;48.234;8.344;2023-04-07T02:25:56;94102.94;;;4.20;71.77
37972;BME280;23794;48.234;8.344;2023-04-07T02:28:23;94099.28;;;4.13;71.75
37972;BME280;23794;48.234;8.344;2023-04-07T02:30:49;94107.91;;;4.18;71.85
37972;BME280;23794;48.234;8.344;2023-04-07T02:33:16;94101.34;;;4.19;71.91
37972;BME280;23794;48.234;8.344;2023-04-07T02:35:46;94103.44;;;4.30;71.53
37972;BME280;23794;48.234;8.344;2023-04-07T02:38:12;94096.47;;;4.29;72.30
37972;BME280;23794;48.234;8.344;2023-04-07T02:40:39;94094.97;;;4.31;72.11
37972;BME280;23794;48.234;8.344;2023-04-07T02:43:05;94092.53;;;4.26;72.64
37972;BME280;23794;48.234;8.344;2023-04-07T02:45:32;94094.16;;;4.31;71.75
37972;BME280;23794;48.234;8.344;2023-04-07T02:47:58;94084.00;;;4.24;72.36
37972;BME280;23794;48.234;8.344;2023-04-07T02:50:25;94080.06;;;4.21;72.50
37972;BME280;23794;48.234;8.344;2023-04-07T02:52:52;94090.97;;;4.25;72.85
37972;BME280;23794;48.234;8.344;2023-04-07T02:55:19;94086.66;;;4.20;72.74
37972;BME280;23794;48.234;8.344;2023-04-07T02:57:46;94088.25;;;4.25;71.90
37972;BME280;23794;48.234;8.344;2023-04-07T03:00:34;94082.00;;;4.21;72.01
37972;BME280;23794;48.234;8.344;2023-04-07T03:03:07;94074.19;;;4.16;71.71
37972;BME280;23794;48.234;8.344;2023-04-07T03:05:36;94076.34;;;4.06;72.25
37972;BME280;23794;48.234;8.344;2023-04-07T03:08:04;94070.63;;;4.12;72.13
37972;BME280;23794;48.234;8.344;2023-04-07T03:10:31;94070.63;;;4.12;73.45
37972;BME280;23794;48.234;8.344;2023-04-07T03:13:00;94073.31;;;4.12;72.79
37972;BME280;23794;48.234;8.344;2023-04-07T03:15:28;94065.88;;;4.05;72.51
37972;BME280;23794;48.234;8.344;2023-04-07T03:17:54;94063.81;;;3.98;73.23
37972;BME280;23794;48.234;8.344;2023-04-07T03:20:21;94065.28;;;3.92;73.50
37972;BME280;23794;48.234;8.344;2023-04-07T03:22:48;94054.75;;;3.87;74.11
37972;BME280;23794;48.234;8.344;2023-04-07T03:25:27;94060.22;;;3.90;73.82
37972;BME280;23794;48.234;8.344;2023-04-07T03:27:54;94058.72;;;3.93;73.72
37972;BME280;23794;48.234;8.344;2023-04-07T03:30:24;94060.56;;;3.89;73.77
37972;BME280;23794;48.234;8.344;2023-04-07T03:32:50;94059.97;;;3.99;72.72
37972;BME280;23794;48.234;8.344;2023-04-07T03:35:17;94056.88;;;4.01;72.64
37972;BME280;23794;48.234;8.344;2023-04-07T03:37:44;94057.50;;;3.90;73.12
37972;BME280;23794;48.234;8.344;2023-04-07T03:40:15;94057.47;;;3.87;73.12
37972;BME280;23794;48.234;8.344;2023-04-07T03:42:44;94048.03;;;3.81;73.18
37972;BME280;23794;48.234;8.344;2023-04-07T03:45:14;94047.75;;;3.86;73.23
37972;BME280;23794;48.234;8.344;2023-04-07T03:47:46;94038.00;;;3.81;72.85
37972;BME280;23794;48.234;8.344;2023-04-07T03:50:14;94024.28;;;3.70;73.25
37972;BME280;23794;48.234;8.344;2023-04-07T03:52:52;94021.19;;;3.72;72.66
37972;BME280;23794;48.234;8.344;2023-04-07T03:55:24;94013.00;;;3.68;72.63
37972;BME280;23794;48.234;8.344;2023-04-07T03:57:55;94012.06;;;3.57;73.31
37972;BME280;23794;48.234;8.344;2023-04-07T04:00:25;94018.69;;;3.40;73.83
37972;BME280;23794;48.234;8.344;2023-04-07T04:03:05;94028.56;;;3.28;73.99
37972;BME280;23794;48.234;8.344;2023-04-07T04:05:38;94032.84;;;3.30;74.06
37972;BME280;23794;48.234;8.344;2023-04-07T04:08:07;94036.69;;;3.28;74.04
37972;BME280;23794;48.234;8.344;2023-04-07T04:10:37;94034.88;;;3.36;74.23
37972;BME280;23794;48.234;8.344;2023-04-07T04:13:04;94037.19;;;3.34;74.86
37972;BME280;23794;48.234;8.344;2023-04-07T04:15:33;94039.34;;;3.48;74.16
37972;BME280;23794;48.234;8.344;2023-04-07T04:18:03;94041.09;;;3.60;73.29
37972;BME280;23794;48.234;8.344;2023-04-07T04:20:32;94029.44;;;3.56;72.91
37972;BME280;23794;48.234;8.344;2023-04-07T04:23:01;94027.63;;;3.40;74.02
37972;BME280;23794;48.234;8.344;2023-04-07T04:25:28;94026.69;;;3.33;73.98
37972;BME280;23794;48.234;8.344;2023-04-07T04:27:56;94031.53;;;3.23;75.28
37972;BME280;23794;48.234;8.344;2023-04-07T04:30:25;94033.63;;;3.30;73.62
37972;BME280;23794;48.234;8.344;2023-04-07T04:32:59;94039.09;;;3.34;73.31
37972;BME280;23794;48.234;8.344;2023-04-07T04:35:51;94037.53;;;3.33;73.66
37972;BME280;23794;48.234;8.344;2023-04-07T04:38:19;94041.31;;;3.28;73.58
37972;BME280;23794;48.234;8.344;2023-04-07T04:41:08;94046.00;;;3.31;74.01
37972;BME280;23794;48.234;8.344;2023-04-07T04:43:35;94043.72;;;3.33;73.51
37972;BME280;23794;48.234;8.344;2023-04-07T04:46:03;94047.66;;;3.36;73.16
37972;BME280;23794;48.234;8.344;2023-04-07T04:48:35;94041.16;;;3.21;73.93
37972;BME280;23794;48.234;8.344;2023-04-07T04:51:04;94034.19;;;3.20;73.88
37972;BME280;23794;48.234;8.344;2023-04-07T04:53:33;94040.53;;;3.27;73.67
37972;BME280;23794;48.234;8.344;2023-04-07T04:56:01;94037.09;;;3.31;73.47
37972;BME280;23794;48.234;8.344;2023-04-07T04:58:38;94033.53;;;3.26;74.74
37972;BME280;23794;48.234;8.344;2023-04-07T05:01:06;94029.97;;;3.42;74.09
37972;BME280;23794;48.234;8.344;2023-04-07T05:03:39;94033.56;;;3.50;74.07
37972;BME280;23794;48.234;8.344;2023-04-07T05:06:14;94026.81;;;3.40;74.17
37972;BME280;23794;48.234;8.344;2023-04-07T05:08:42;94028.56;;;3.52;73.19
37972;BME280;23794;48.234;8.344;2023-04-07T05:11:10;94029.31;;;3.49;73.32
37972;BME280;23794;48.234;8.344;2023-04-07T05:13:37;94030.44;;;3.48;74.20
37972;BME280;23794;48.234;8.344;2023-04-07T05:16:04;94022.28;;;3.67;73.76
37972;BME280;23794;48.234;8.344;2023-04-07T05:18:33;94018.84;;;3.70;74.02
37972;BME280;23794;48.234;8.344;2023-04-07T05:21:01;94021.00;;;3.84;73.43
37972;BME280;23794;48.234;8.344;2023-04-07T05:23:28;94023.25;;;3.79;73.30
37972;BME280;23794;48.234;8.344;2023-04-07T05:25:59;94010.03;;;3.77;73.00
37972;BME280;23794;48.234;8.344;2023-04-07T05:28:26;94021.25;;;3.75;73.23
37972;BME280;23794;48.234;8.344;2023-04-07T05:30:56;94019.09;;;3.85;72.51
37972;BME280;23794;48.234;8.344;2023-04-07T05:33:28;94021.00;;;3.84;72.44
37972;BME280;23794;48.234;8.344;2023-04-07T05:35:55;94020.78;;;3.93;72.35
37972;BME280;23794;48.234;8.344;2023-04-07T05:38:22;94013.91;;;3.99;72.28
37972;BME280;23794;48.234;8.344;2023-04-07T05:40:51;94022.78;;;4.00;72.58
37972;BME280;23794;48.234;8.344;2023-04-07T05:43:23;94020.13;;;4.03;72.57
37972;BME280;23794;48.234;8.344;2023-04-07T05:45:50;94013.16;;;4.02;73.12
37972;BME280;23794;48.234;8.344;2023-04-07T05:48:17;94023.59;;;4.00;73.23
37972;BME280;23794;48.234;8.344;2023-04-07T05:50:45;94029.06;;;4.04;73.22
37972;BME280;23794;48.234;8.344;2023-04-07T05:53:15;94024.25;;;4.17;72.78
37972;BME280;23794;48.234;8.344;2023-04-07T05:55:45;94014.94;;;4.18;73.11
37972;BME280;23794;48.234;8.344;2023-04-07T05:58:20;94016.97;;;4.24;72.74
37972;BME280;23794;48.234;8.344;2023-04-07T06:00:50;94021.91;;;4.42;71.89
37972;BME280;23794;48.234;8.344;2023-04-07T06:03:17;94021.28;;;4.56;71.63
37972;BME280;23794;48.234;8.344;2023-04-07T06:06:03;94017.38;;;4.80;70.48
37972;BME280;23794;48.234;8.344;2023-04-07T06:08:30;94021.19;;;5.06;69.63
37972;BME280;23794;48.234;8.344;2023-04-07T06:10:57;94017.88;;;5.20;68.98
37972;BME280;23794;48.234;8.344;2023-04-07T06:13:25;94024.19;;;5.31;68.00
37972;BME280;23794;48.234;8.344;2023-04-07T06:15:54;94017.13;;;5.61;68.26
37972;BME280;23794;48.234;8.344;2023-04-07T06:18:21;94027.47;;;5.89;67.69
37972;BME280;23794;48.234;8.344;2023-04-07T06:20:48;94024.13;;;6.07;66.83
37972;BME280;23794;48.234;8.344;2023-04-07T06:23:15;94028.06;;;6.13;66.97
37972;BME280;23794;48.234;8.344;2023-04-07T06:25:41;94029.50;;;6.00;66.23
37972;BME280;23794;48.234;8.344;2023-04-07T06:28:08;94022.56;;;6.06;65.73
37972;BME280;23794;48.234;8.344;2023-04-07T06:30:34;94032.25;;;6.03;64.73
37972;BME280;23794;48.234;8.344;2023-04-07T06:33:06;94022.09;;;5.96;64.76
37972;BME280;23794;48.234;8.344;2023-04-07T06:35:35;94018.63;;;6.00;65.29
37972;BME280;23794;48.234;8.344;2023-04-07T06:38:02;94028.00;;;6.02;66.10
37972;BME280;23794;48.234;8.344;2023-04-07T06:40:28;94030.47;;;6.22;66.63
37972;BME280;23794;48.234;8.344;2023-04-07T06:42:59;94030.50;;;6.29;65.84
37972;BME280;23794;48.234;8.344;2023-04-07T06:45:35;94027.34;;;6.23;65.81
37972;BME280;23794;48.234;8.344;2023-04-07T06:48:03;94032.44;;;6.25;65.55
37972;BME280;23794;48.234;8.344;2023-04-07T06:50:29;94031.69;;;6.32;65.64
37972;BME280;23794;48.234;8.344;2023-04-07T06:52:58;94026.63;;;6.26;65.37
37972;BME280;23794;48.234;8.344;2023-04-07T06:55:25;94033.53;;;6.17;65.80
37972;BME280;23794;48.234;8.344;2023-04-07T06:57:52;94037.00;;;6.13;65.93
37972;BME280;23794;48.234;8.344;2023-04-07T07:00:19;94035.50;;;6.20;65.34
37972;BME280;23794;48.234;8.344;2023-04-07T07:02:46;94028.13;;;6.20;65.90
37972;BME280;23794;48.234;8.344;2023-04-07T07:05:12;94040.28;;;6.37;66.29
37972;BME280;23794;48.234;8.344;2023-04-07T07:07:39;94028.75;;;6.55;65.46
37972;BME280;23794;48.234;8.344;2023-04-07T07:10:08;94032.31;;;6.66;65.82
37972;BME280;23794;48.234;8.344;2023-04-07T07:12:36;94031.66;;;6.87;65.43
37972;BME280;23794;48.234;8.344;2023-04-07T07:15:05;94032.16;;;7.11;64.78
37972;BME280;23794;48.234;8.344;2023-04-07T07:17:33;94033.38;;;7.24;63.56
37972;BME280;23794;48.234;8.344;2023-04-07T07:20:00;94036.56;;;7.41;63.28
37972;BME280;23794;48.234;8.344;2023-04-07T07:22:28;94031.97;;;7.78;62.96
37972;BME280;23794;48.234;8.344;2023-04-07T07:24:55;94035.13;;;7.94;61.97
37972;BME280;23794;48.234;8.344;2023-04-07T07:27:22;94030.06;;;7.96;61.77
37972;BME280;23794;48.234;8.344;2023-04-07T07:29:51;94030.47;;;8.13;61.40
37972;BME280;23794;48.234;8.344;2023-04-07T07:32:18;94034.78;;;8.32;61.56
37972;BME280;23794;48.234;8.344;2023-04-07T07:34:45;94028.91;;;8.44;61.00
37972;BME280;23794;48.234;8.344;2023-04-07T07:37:11;94029.28;;;8.61;60.30
37972;BME280;23794;48.234;8.344;2023-04-07T07:39:38;94021.81;;;8.79;59.83
37972;BME280;23794;48.234;8.344;2023-04-07T07:42:05;94024.53;;;8.87;58.92
37972;BME280;23794;48.234;8.344;2023-04-07T07:44:31;94028.00;;;9.02;58.53
37972;BME280;23794;48.234;8.344;2023-04-07T07:46:58;94020.13;;;9.22;57.65
37972;BME280;23794;48.234;8.344;2023-04-07T07:49:24;94021.25;;;9.31;56.59
37972;BME280;23794;48.234;8.344;2023-04-07T07:51:51;94027.91;;;9.27;55.20
37972;BME280;23794;48.234;8.344;2023-04-07T07:54:18;94027.88;;;9.41;54.45
37972;BME280;23794;48.234;8.344;2023-04-07T07:56:45;94019.75;;;9.16;54.48
37972;BME280;23794;48.234;8.344;2023-04-07T07:59:13;94025.72;;;8.86;55.24
37972;BME280;23794;48.234;8.344;2023-04-07T08:01:42;94031.63;;;8.59;55.44
37972;BME280;23794;48.234;8.344;2023-04-07T08:04:08;94037.09;;;8.33;56.26
37972;BME280;23794;48.234;8.344;2023-04-07T08:06:35;94042.56;;;8.26;56.97
37972;BME280;23794;48.234;8.344;2023-04-07T08:09:02;94037.47;;;8.10;57.98
37972;BME280;23794;48.234;8.344;2023-04-07T08:11:29;94037.09;;;8.01;57.73
37972;BME280;23794;48.234;8.344;2023-04-07T08:13:56;94039.81;;;8.01;57.20
37972;BME280;23794;48.234;8.344;2023-04-07T08:16:22;94043.72;;;8.14;57.70
37972;BME280;23794;48.234;8.344;2023-04-07T08:18:49;94050.75;;;8.30;57.36
37972;BME280;23794;48.234;8.344;2023-04-07T08:21:16;94052.69;;;8.29;55.64
37972;BME280;23794;48.234;8.344;2023-04-07T08:23:42;94051.91;;;8.54;55.83
37972;BME280;23794;48.234;8.344;2023-04-07T08:26:09;94051.84;;;8.79;55.61
37972;BME280;23794;48.234;8.344;2023-04-07T08:28:36;94049.09;;;8.90;55.23
37972;BME280;23794;48.234;8.344;2023-04-07T08:31:02;94050.63;;;9.09;55.27
37972;BME280;23794;48.234;8.344;2023-04-07T08:33:29;94062.41;;;8.77;53.30
37972;BME280;23794;48.234;8.344;2023-04-07T08:35:56;94053.06;;;8.60;54.21
37972;BME280;23794;48.234;8.344;2023-04-07T08:38:23;94067.09;;;8.73;54.54
37972;BME280;23794;48.234;8.344;2023-04-07T08:40:55;94063.22;;;8.60;54.00
37972;BME280;23794;48.234;8.344;2023-04-07T08:43:25;94066.69;;;8.71;54.45
37972;BME280;23794;48.234;8.344;2023-04-07T08:45:55;94075.69;;;8.75;54.20
37972;BME280;23794;48.234;8.344;2023-04-07T08:48:23;94065.94;;;8.71;54.81
37972;BME280;23794;48.234;8.344;2023-04-07T08:50:53;94072.94;;;8.82;55.14
37972;BME280;23794;48.234;8.344;2023-04-07T08:53:23;94065.88;;;9.03;54.43
37972;BME280;23794;48.234;8.344;2023-04-07T08:55:54;94071.31;;;9.07;54.29
37972;BME280;23794;48.234;8.344;2023-04-07T08:58:22;94070.06;;;9.37;53.70
37972;BME280;23794;48.234;8.344;2023-04-07T09:00:49;94072.41;;;9.45;52.61
37972;BME280;23794;48.234;8.344;2023-04-07T09:03:18;94066.94;;;9.31;52.58
37972;BME280;23794;48.234;8.344;2023-04-07T09:05:45;94063.44;;;9.34;51.53
37972;BME280;23794;48.234;8.344;2023-04-07T09:08:12;94061.75;;;9.62;52.93
37972;BME280;23794;48.234;8.344;2023-04-07T09:10:38;94070.66;;;9.84;52.08
37972;BME280;23794;48.234;8.344;2023-04-07T09:13:07;94062.69;;;10.08;51.72
37972;BME280;23794;48.234;8.344;2023-04-07T09:15:34;94068.22;;;10.01;51.16
37972;BME280;23794;48.234;8.344;2023-04-07T09:18:04;94065.19;;;9.81;51.98
37972;BME280;23794;48.234;8.344;2023-04-07T09:20:56;94064.03;;;9.78;52.21
37972;BME280;23794;48.234;8.344;2023-04-07T09:23:31;94068.75;;;9.74;51.59
37972;BME280;23794;48.234;8.344;2023-04-07T09:25:59;94069.53;;;9.74;52.72
37972;BME280;23794;48.234;8.344;2023-04-07T09:28:47;94068.06;;;10.22;51.80
37972;BME280;23794;48.234;8.344;2023-04-07T09:31:15;94066.53;;;10.18;50.99
37972;BME280;23794;48.234;8.344;2023-04-07T09:33:42;94059.50;;;10.17;52.03
37972;BME280;23794;48.234;8.344;2023-04-07T09:36:09;94067.47;;;9.93;51.45
37972;BME280;23794;48.234;8.344;2023-04-07T09:38:39;94069.88;;;9.87;52.33
37972;BME280;23794;48.234;8.344;2023-04-07T09:41:14;94069.88;;;9.84;52.17
37972;BME280;23794;48.234;8.344;2023-04-07T09:43:43;94073.72;;;9.97;52.54
37972;BME280;23794;48.234;8.344;2023-04-07T09:46:13;94070.41;;;10.24;51.65
37972;BME280;23794;48.234;8.344;2023-04-07T09:48:41;94069.56;;;10.34;51.95
37972;BME280;23794;48.234;8.344;2023-04-07T09:51:12;94066.63;;;10.56;52.25
37972;BME280;23794;48.234;8.344;2023-04-07T09:53:47;94063.75;;;10.74;51.25
37972;BME280;23794;48.234;8.344;2023-04-07T09:56:16;94070.00;;;10.74;50.60
37972;BME280;23794;48.234;8.344;2023-04-07T09:58:45;94063.13;;;10.55;50.74
37972;BME280;23794;48.234;8.344;2023-04-07T10:01:14;94066.28;;;10.50;50.11
37972;BME280;23794;48.234;8.344;2023-04-07T10:03:43;94068.38;;;10.35;50.75
37972;BME280;23794;48.234;8.344;2023-04-07T10:06:09;94056.94;;;10.48;51.22
37972;BME280;23794;48.234;8.344;2023-04-07T10:08:41;94060.69;;;10.65;50.98
37972;BME280;23794;48.234;8.344;2023-04-07T10:11:09;94056.91;;;10.93;49.72
37972;BME280;23794;48.234;8.344;2023-04-07T10:13:39;94053.50;;;11.20;49.29
37972;BME280;23794;48.234;8.344;2023-04-07T10:16:06;94059.22;;;10.98;49.93
37972;BME280;23794;48.234;8.344;2023-04-07T10:18:34;94065.44;;;11.06;50.50
37972;BME280;23794;48.234;8.344;2023-04-07T10:21:05;94061.47;;;11.11;49.99
37972;BME280;23794;48.234;8.344;2023-04-07T10:23:57;94059.34;;;10.84;49.46
37972;BME280;23794;48.234;8.344;2023-04-07T10:26:25;94058.50;;;11.32;48.43
37972;BME280;23794;48.234;8.344;2023-04-07T10:28:58;94063.00;;;11.50;48.62
37972;BME280;23794;48.234;8.344;2023-04-07T10:31:25;94051.69;;;11.44;48.79
37972;BME280;23794;48.234;8.344;2023-04-07T10:33:52;94050.72;;;11.58;48.53
37972;BME280;23794;48.234;8.344;2023-04-07T10:36:20;94056.25;;;11.86;48.83
37972;BME280;23794;48.234;8.344;2023-04-07T10:41:41;94065.25;;;12.17;46.70
37972;BME280;23794;48.234;8.344;2023-04-07T10:44:09;94052.88;;;12.05;46.41
37972;BME280;23794;48.234;8.344;2023-04-07T10:49:27;94064.50;;;12.13;46.57
37972;BME280;23794;48.234;8.344;2023-04-07T10:54:39;94065.31;;;11.82;46.98
37972;BME280;23794;48.234;8.344;2023-04-07T10:57:10;94058.16;;;11.61;47.45
37972;BME280;23794;48.234;8.344;2023-04-07T11:02:38;94073.97;;;11.46;47.27
37972;BME280;23794;48.234;8.344;2023-04-07T11:05:06;94069.06;;;10.92;48.72
37972;BME280;23794;48.234;8.344;2023-04-07T11:07:44;94075.47;;;10.78;49.95
37972;BME280;23794;48.234;8.344;2023-04-07T11:10:11;94075.63;;;10.56;50.89
37972;BME280;23794;48.234;8.344;2023-04-07T11:12:38;94085.50;;;10.47;51.09
37972;BME280;23794;48.234;8.344;2023-04-07T11:15:19;94074.59;;;10.39;51.44
37972;BME280;23794;48.234;8.344;2023-04-07T11:20:45;94082.19;;;10.17;52.53
37972;BME280;23794;48.234;8.344;2023-04-07T11:23:13;94077.91;;;10.16;52.80
37972;BME280;23794;48.234;8.344;2023-04-07T11:25:42;94076.81;;;9.99;52.34
37972;BME280;23794;48.234;8.344;2023-04-07T11:28:10;94084.22;;;10.02;52.42
37972;BME280;23794;48.234;8.344;2023-04-07T11:30:51;94076.84;;;9.92;53.02
37972;BME280;23794;48.234;8.344;2023-04-07T11:33:21;94087.44;;;9.90;53.48
37972;BME280;23794;48.234;8.344;2023-04-07T11:35:59;94088.66;;;9.82;53.96
37972;BME280;23794;48.234;8.344;2023-04-07T11:38:36;94080.03;;;9.83;53.63
37972;BME280;23794;48.234;8.344;2023-04-07T11:41:11;94095.69;;;9.83;54.23
37972;BME280;23794;48.234;8.344;2023-04-07T11:43:38;94093.25;;;9.92;54.07
37972;BME280;23794;48.234;8.344;2023-04-07T11:46:15;94088.63;;;9.85;53.16
37972;BME280;23794;48.234;8.344;2023-04-07T11:48:43;94093.25;;;9.92;53.86
37972;BME280;23794;48.234;8.344;2023-04-07T11:51:20;94095.69;;;9.79;54.22
37972;BME280;23794;48.234;8.344;2023-04-07T11:53:55;94092.41;;;10.06;53.84
37972;BME280;23794;48.234;8.344;2023-04-07T11:56:22;94095.56;;;10.04;54.12
37972;BME280;23794;48.234;8.344;2023-04-07T11:58:54;94093.59;;;10.05;54.02
37972;BME280;23794;48.234;8.344;2023-04-07T12:01:20;94095.56;;;10.01;53.77
37972;BME280;23794;48.234;8.344;2023-04-07T12:04:00;94093.31;;;9.81;53.71
37972;BME280;23794;48.234;8.344;2023-04-07T12:06:29;94096.06;;;9.81;54.22
37972;BME280;23794;48.234;8.344;2023-04-07T12:08:58;94098.41;;;9.86;54.14
37972;BME280;23794;48.234;8.344;2023-04-07T12:11:25;94101.16;;;9.83;54.14
37972;BME280;23794;48.234;8.344;2023-04-07T12:13:53;94100.72;;;9.91;54.37
37972;BME280;23794;48.234;8.344;2023-04-07T12:16:20;94098.28;;;10.04;54.43
37972;BME280;23794;48.234;8.344;2023-04-07T12:18:47;94097.34;;;10.29;53.80
37972;BME280;23794;48.234;8.344;2023-04-07T12:21:14;94100.44;;;10.35;54.15
37972;BME280;23794;48.234;8.344;2023-04-07T12:23:41;94096.91;;;10.87;52.90
37972;BME280;23794;48.234;8.344;2023-04-07T12:26:08;94089.00;;;11.69;50.77
37972;BME280;23794;48.234;8.344;2023-04-07T12:28:37;94087.09;;;12.24;49.28
37972;BME280;23794;48.234;8.344;2023-04-07T12:31:03;94092.03;;;13.12;48.36
37972;BME280;23794;48.234;8.344;2023-04-07T12:33:30;94083.53;;;13.86;46.14
37972;BME280;23794;48.234;8.344;2023-04-07T12:35:57;94085.50;;;13.46;46.12
37972;BME280;23794;48.234;8.344;2023-04-07T12:38:24;94089.81;;;12.79;47.54
37972;BME280;23794;48.234;8.344;2023-04-07T12:40:50;94096.84;;;12.29;49.00
37972;BME280;23794;48.234;8.344;2023-04-07T12:43:18;94105.06;;;12.02;49.72
37972;BME280;23794;48.234;8.344;2023-04-07T12:45:44;94112.59;;;12.25;49.81
37972;BME280;23794;48.234;8.344;2023-04-07T12:48:11;94105.84;;;12.29;49.99
37972;BME280;23794;48.234;8.344;2023-04-07T12:50:38;94096.78;;;12.05;49.34
37972;BME280;23794;48.234;8.344;2023-04-07T12:53:04;94102.38;;;11.98;48.33
37972;BME280;23794;48.234;8.344;2023-04-07T12:55:31;94093.34;;;11.66;48.29
37972;BME280;23794;48.234;8.344;2023-04-07T12:57:59;94088.47;;;11.81;48.62
37972;BME280;23794;48.234;8.344;2023-04-07T13:00:25;94094.00;;;12.09;48.10
37972;BME280;23794;48.234;8.344;2023-04-07T13:02:52;94104.13;;;12.43;47.75
37972;BME280;23794;48.234;8.344;2023-04-07T13:05:19;94102.88;;;12.47;47.30
37972;BME280;23794;48.234;8.344;2023-04-07T13:07:46;94092.31;;;12.46;48.10
37972;BME280;23794;48.234;8.344;2023-04-07T13:10:15;94090.41;;;12.67;47.01
37972;BME280;23794;48.234;8.344;2023-04-07T13:12:41;94100.25;;;12.37;47.80
37972;BME280;23794;48.234;8.344;2023-04-07T13:15:08;94105.78;;;12.06;47.53
37972;BME280;23794;48.234;8.344;2023-04-07T13:17:34;94104.38;;;11.94;48.30
37972;BME280;23794;48.234;8.344;2023-04-07T13:20:03;94102.66;;;11.76;48.56
37972;BME280;23794;48.234;8.344;2023-04-07T13:22:32;94095.69;;;11.68;48.83
37972;BME280;23794;48.234;8.344;2023-04-07T13:25:01;94097.22;;;12.00;48.37
37972;BME280;23794;48.234;8.344;2023-04-07T13:27:28;94087.00;;;12.31;46.61
37972;BME280;23794;48.234;8.344;2023-04-07T13:29:54;94090.22;;;11.95;47.85
37972;BME280;23794;48.234;8.344;2023-04-07T13:32:21;94088.66;;;11.67;47.51
37972;BME280;23794;48.234;8.344;2023-04-07T13:34:49;94090.34;;;11.57;47.88
37972;BME280;23794;48.234;8.344;2023-04-07T13:37:15;94092.03;;;11.44;49.56
37972;BME280;23794;48.234;8.344;2023-04-07T13:39:42;94094.66;;;11.55;49.06
37972;BME280;23794;48.234;8.344;2023-04-07T13:42:09;94093.22;;;11.77;48.78